createdAt,value
2022-10-11T00:01:33.876Z,3.83
2022-10-11T00:04:00.385Z,3.79
2022-10-11T00:06:26.850Z,3.76
2022-10-11T00:08:53.302Z,3.72
2022-10-11T00:11:19.813Z,3.70
2022-10-11T00:13:49.247Z,3.69
2022-10-11T00:16:15.773Z,3.66
2022-10-11T00:18:42.462Z,3.63
2022-10-11T00:21:11.418Z,3.59
2022-10-11T00:23:38.130Z,3.57
2022-10-11T00:26:05.739Z,3.53
2022-10-11T00:28:32.604Z,3.51
2022-10-11T00:30:59.281Z,3.48
2022-10-11T00:33:25.817Z,3.42
2022-10-11T00:35:52.324Z,3.42
2022-10-11T00:38:18.967Z,3.37
2022-10-11T00:40:45.454Z,3.37
2022-10-11T00:43:20.386Z,3.35
2022-10-11T00:45:52.688Z,3.33
2022-10-11T00:48:22.822Z,3.31
2022-10-11T00:50:49.270Z,3.29
2022-10-11T00:53:15.726Z,3.26
2022-10-11T00:55:49.339Z,3.24
2022-10-11T00:58:17.100Z,3.23
2022-10-11T01:00:43.858Z,3.21
2022-10-11T01:03:10.437Z,3.20
2022-10-11T01:05:37.272Z,3.20
2022-10-11T01:08:03.992Z,3.20
2022-10-11T01:10:30.666Z,3.19
2022-10-11T01:13:25.866Z,3.19
2022-10-11T01:15:55.401Z,3.23
2022-10-11T01:18:28.407Z,3.26
2022-10-11T01:21:10.391Z,3.31
2022-10-11T01:24:11.078Z,3.36
2022-10-11T01:27:15.077Z,3.39
2022-10-11T01:29:52.565Z,3.41
2022-10-11T01:32:24.105Z,3.41
2022-10-11T01:35:01.403Z,3.40
2022-10-11T01:37:36.753Z,3.39
2022-10-11T01:40:13.417Z,3.36
2022-10-11T01:42:40.375Z,3.35
2022-10-11T01:45:08.758Z,3.33
2022-10-11T01:47:38.337Z,3.33
2022-10-11T01:50:07.440Z,3.32
2022-10-11T01:52:34.490Z,3.32
2022-10-11T01:55:22.524Z,3.32
2022-10-11T01:58:06.468Z,3.31
2022-10-11T02:00:43.412Z,3.31
2022-10-11T02:03:57.746Z,3.29
2022-10-11T02:06:31.756Z,3.28
2022-10-11T02:09:16.002Z,3.27
2022-10-11T02:11:42.455Z,3.27
2022-10-11T02:14:11.046Z,3.27
2022-10-11T02:16:50.595Z,3.26
2022-10-11T02:19:18.856Z,3.24
2022-10-11T02:21:47.294Z,3.23
2022-10-11T02:24:18.417Z,3.20
2022-10-11T02:26:47.983Z,3.17
2022-10-11T02:29:14.686Z,3.15
2022-10-11T02:31:41.839Z,3.13
2022-10-11T02:34:17.796Z,3.11
2022-10-11T02:36:53.573Z,3.08
2022-10-11T02:39:25.526Z,3.03
2022-10-11T02:41:52.305Z,3.00
2022-10-11T02:44:32.405Z,2.97
2022-10-11T02:46:59.636Z,2.91
2022-10-11T02:49:27.098Z,2.88
2022-10-11T02:51:56.883Z,2.89
2022-10-11T02:54:24.790Z,2.87
2022-10-11T02:56:51.508Z,2.86
2022-10-11T02:59:17.958Z,2.87
2022-10-11T03:01:45.430Z,2.88
2022-10-11T03:04:11.931Z,2.87
2022-10-11T03:06:39.937Z,2.85
2022-10-11T03:09:06.465Z,2.82
2022-10-11T03:11:33.319Z,2.81
2022-10-11T03:14:00.908Z,2.78
2022-10-11T03:16:27.584Z,2.76
2022-10-11T03:18:54.192Z,2.75
2022-10-11T03:21:20.745Z,2.75
2022-10-11T03:23:47.344Z,2.74
2022-10-11T03:26:13.841Z,2.71
2022-10-11T03:28:40.453Z,2.70
2022-10-11T03:31:07.368Z,2.68
2022-10-11T03:33:33.818Z,2.69
2022-10-11T03:37:18.938Z,2.75
2022-10-11T03:39:45.994Z,2.75
2022-10-11T03:42:13.458Z,2.76
2022-10-11T03:44:41.656Z,2.76
2022-10-11T03:47:08.445Z,2.76
2022-10-11T03:49:36.850Z,2.73
2022-10-11T03:52:06.689Z,2.69
2022-10-11T03:54:33.411Z,2.65
2022-10-11T03:57:00.074Z,2.62
2022-10-11T03:59:26.778Z,2.60
2022-10-11T04:01:53.554Z,2.56
2022-10-11T04:04:20.303Z,2.53
2022-10-11T04:06:46.986Z,2.49
2022-10-11T04:09:13.698Z,2.51
2022-10-11T04:11:40.466Z,2.50
2022-10-11T04:14:07.123Z,2.50
2022-10-11T04:16:35.237Z,2.46
2022-10-11T04:19:01.897Z,2.44
2022-10-11T04:21:28.595Z,2.43
2022-10-11T04:23:55.331Z,2.43
2022-10-11T04:26:22.012Z,2.44
2022-10-11T04:28:48.749Z,2.42
2022-10-11T04:31:15.509Z,2.47
2022-10-11T04:33:42.175Z,2.44
2022-10-11T04:36:09.132Z,2.52
2022-10-11T04:38:36.054Z,2.54
2022-10-11T04:41:10.147Z,2.55
2022-10-11T04:43:36.887Z,2.56
2022-10-11T04:46:04.447Z,2.57
2022-10-11T04:48:31.337Z,2.58
2022-10-11T04:50:57.958Z,2.60
2022-10-11T04:53:24.768Z,2.61
2022-10-11T04:56:01.747Z,2.64
2022-10-11T04:58:29.404Z,2.67
2022-10-11T05:00:56.129Z,2.69
2022-10-11T05:03:25.680Z,2.72
2022-10-11T05:05:52.927Z,2.76
2022-10-11T05:08:19.924Z,2.79
2022-10-11T05:11:04.215Z,2.83
2022-10-11T05:13:31.212Z,2.90
2022-10-11T05:15:57.990Z,2.95
2022-10-11T05:18:24.741Z,3.01
2022-10-11T05:21:09.116Z,3.08
2022-10-11T05:23:36.139Z,3.17
2022-10-11T05:26:03.566Z,3.27
2022-10-11T05:28:30.699Z,3.36
2022-10-11T05:30:57.525Z,3.44
2022-10-11T05:33:24.378Z,3.54
2022-10-11T05:35:51.076Z,3.62
2022-10-11T05:38:17.967Z,3.70
2022-10-11T05:40:44.736Z,3.79
2022-10-11T05:43:11.477Z,3.88
2022-10-11T05:45:38.824Z,3.98
2022-10-11T05:48:05.862Z,4.06
2022-10-11T05:50:32.598Z,4.15
2022-10-11T05:52:59.432Z,4.23
2022-10-11T05:55:26.234Z,4.30
2022-10-11T05:57:54.610Z,4.38
2022-10-11T06:00:22.068Z,4.48
2022-10-11T06:02:48.844Z,4.58
2022-10-11T06:05:16.235Z,4.69
2022-10-11T06:07:43.123Z,4.81
2022-10-11T06:10:09.947Z,4.91
2022-10-11T06:12:36.787Z,5.02
2022-10-11T06:15:04.015Z,5.13
2022-10-11T06:17:30.846Z,5.25
2022-10-11T06:19:57.505Z,5.35
2022-10-11T06:22:24.175Z,5.45
2022-10-11T06:24:50.927Z,5.56
2022-10-11T06:27:17.537Z,5.67
2022-10-11T06:29:44.216Z,5.79
2022-10-11T06:32:13.291Z,5.90
2022-10-11T06:34:39.995Z,6.00
2022-10-11T06:37:07.451Z,6.12
2022-10-11T06:39:35.116Z,6.20
2022-10-11T06:42:02.061Z,6.33
2022-10-11T06:44:29.302Z,6.44
2022-10-11T06:46:56.046Z,6.54
2022-10-11T06:49:23.644Z,6.63
2022-10-11T06:51:50.971Z,6.74
2022-10-11T06:54:17.665Z,6.85
2022-10-11T06:56:45.764Z,6.95
2022-10-11T06:59:13.532Z,7.06
2022-10-11T07:01:41.502Z,7.17
2022-10-11T07:04:08.407Z,7.28
2022-10-11T07:06:39.401Z,7.40
2022-10-11T07:09:06.429Z,7.50
2022-10-11T07:11:33.488Z,7.60
2022-10-11T07:14:02.241Z,7.73
2022-10-11T07:16:29.033Z,7.86
2022-10-11T07:19:00.580Z,7.96
2022-10-11T07:21:28.360Z,8.10
2022-10-11T07:23:55.166Z,8.20
2022-10-11T07:26:21.811Z,8.29
2022-10-11T07:28:48.572Z,8.38
2022-10-11T07:31:20.381Z,8.48
2022-10-11T07:33:47.086Z,8.58
2022-10-11T07:36:13.940Z,8.67
2022-10-11T07:38:41.378Z,8.77
2022-10-11T07:41:08.620Z,8.88
2022-10-11T07:43:36.065Z,8.98
2022-10-11T07:46:04.863Z,9.08
2022-10-11T07:48:32.620Z,9.16
2022-10-11T07:51:21.917Z,9.27
2022-10-11T07:53:49.990Z,9.39
2022-10-11T07:56:18.491Z,9.50
2022-10-11T07:58:48.800Z,9.60
2022-10-11T08:01:15.752Z,9.72
2022-10-11T08:03:42.624Z,9.80
2022-10-11T08:06:10.062Z,9.88
2022-10-11T08:08:37.112Z,9.91
2022-10-11T08:11:03.822Z,10.00
2022-10-11T08:13:30.630Z,10.05
2022-10-11T08:15:57.600Z,10.09
2022-10-11T08:18:24.443Z,10.13
2022-10-11T08:20:51.263Z,10.18
2022-10-11T08:23:17.967Z,10.25
2022-10-11T08:25:46.520Z,10.29
2022-10-11T08:28:20.784Z,10.33
2022-10-11T08:30:51.589Z,10.37
2022-10-11T08:33:19.125Z,10.41
2022-10-11T08:35:46.002Z,10.43
2022-10-11T08:38:12.811Z,10.46
2022-10-11T08:40:49.747Z,10.50
2022-10-11T08:43:47.162Z,10.53
2022-10-11T08:46:14.107Z,10.59
2022-10-11T08:48:49.982Z,10.63
2022-10-11T08:51:31.310Z,10.68
2022-10-11T08:54:11.209Z,10.73
2022-10-11T08:56:39.999Z,10.76
2022-10-11T08:59:09.118Z,10.83
2022-10-11T09:01:36.053Z,10.87
2022-10-11T09:04:03.704Z,10.90
2022-10-11T09:06:36.901Z,10.93
2022-10-11T09:09:18.846Z,10.97
2022-10-11T09:11:56.881Z,11.01
2022-10-11T09:14:48.445Z,11.08
2022-10-11T09:17:37.922Z,11.15
2022-10-11T09:20:22.790Z,11.20
2022-10-11T09:23:08.270Z,11.20
2022-10-11T09:25:37.897Z,11.27
2022-10-11T09:28:24.347Z,11.31
2022-10-11T09:30:52.961Z,11.35
2022-10-11T09:33:21.540Z,11.39
2022-10-11T09:35:50.374Z,11.42
2022-10-11T09:38:40.477Z,11.46
2022-10-11T09:41:35.248Z,11.50
2022-10-11T09:44:01.965Z,11.54
2022-10-11T09:46:32.526Z,11.57
2022-10-11T09:48:59.274Z,11.58
2022-10-11T09:51:26.151Z,11.61
2022-10-11T09:54:02.918Z,11.62
2022-10-11T09:56:30.313Z,11.69
2022-10-11T09:59:27.250Z,11.72
2022-10-11T10:02:12.865Z,11.75
2022-10-11T10:05:23.164Z,11.79
2022-10-11T10:08:02.840Z,11.82
2022-10-11T10:10:39.275Z,11.88
2022-10-11T10:13:27.042Z,11.92
2022-10-11T10:15:55.838Z,11.97
2022-10-11T10:18:35.835Z,12.01
2022-10-11T10:21:02.753Z,12.05
2022-10-11T10:23:31.540Z,12.06
2022-10-11T10:26:21.475Z,12.07
2022-10-11T10:29:00.933Z,12.08
2022-10-11T10:31:49.162Z,12.10
2022-10-11T10:34:33.096Z,12.14
2022-10-11T10:37:06.949Z,12.19
2022-10-11T10:39:43.000Z,12.22
2022-10-11T10:42:15.649Z,12.27
2022-10-11T10:44:43.125Z,12.30
2022-10-11T10:47:30.133Z,12.33
2022-10-11T10:50:16.063Z,12.36
2022-10-11T10:52:43.633Z,12.40
2022-10-11T10:55:24.583Z,12.44
2022-10-11T10:58:18.797Z,12.48
2022-10-11T11:00:50.772Z,12.49
2022-10-11T11:03:39.724Z,12.51
2022-10-11T11:06:08.195Z,12.54
2022-10-11T11:09:00.150Z,12.55
2022-10-11T11:11:42.292Z,12.56
2022-10-11T11:14:31.073Z,12.55
2022-10-11T11:17:03.592Z,12.57
2022-10-11T11:19:57.370Z,12.59
2022-10-11T11:22:39.880Z,12.61
2022-10-11T11:25:27.732Z,12.63
2022-10-11T11:28:14.627Z,12.71
2022-10-11T11:30:51.098Z,12.75
2022-10-11T11:33:36.497Z,12.78
2022-10-11T11:36:06.174Z,12.81
2022-10-11T11:38:42.122Z,12.84
2022-10-11T11:41:16.279Z,12.88
2022-10-11T11:43:57.117Z,12.91
2022-10-11T11:46:45.165Z,12.95
2022-10-11T11:49:20.763Z,12.98
2022-10-11T11:51:47.489Z,12.99
2022-10-11T11:54:17.049Z,13.04
2022-10-11T11:56:55.778Z,13.06
2022-10-11T11:59:45.831Z,13.08
2022-10-11T12:02:15.759Z,13.13
2022-10-11T12:04:43.548Z,13.16
2022-10-11T12:07:16.732Z,13.20
2022-10-11T12:09:51.735Z,13.22
2022-10-11T12:12:44.850Z,13.25
2022-10-11T12:15:19.736Z,13.30
2022-10-11T12:17:58.549Z,13.34
2022-10-11T12:20:31.990Z,13.38
2022-10-11T12:23:04.053Z,13.41
2022-10-11T12:25:39.693Z,13.46
2022-10-11T12:28:37.488Z,13.50
2022-10-11T12:31:06.464Z,13.54
2022-10-11T12:33:33.603Z,13.58
2022-10-11T12:36:04.076Z,13.61
2022-10-11T12:38:35.495Z,13.63
2022-10-11T12:41:13.388Z,13.65
2022-10-11T12:43:49.411Z,13.67
2022-10-11T12:46:28.430Z,13.69
2022-10-11T12:49:26.624Z,13.69
2022-10-11T12:52:22.017Z,13.73
2022-10-11T12:55:07.740Z,13.73
2022-10-11T12:57:57.016Z,13.75
2022-10-11T13:00:26.356Z,13.76
2022-10-11T13:02:53.030Z,13.77
2022-10-11T13:05:22.672Z,13.79
2022-10-11T13:07:49.664Z,13.77
2022-10-11T13:10:17.754Z,13.78
2022-10-11T13:12:45.117Z,13.79
2022-10-11T13:15:14.882Z,13.80
2022-10-11T13:17:41.961Z,13.80
2022-10-11T13:20:24.533Z,13.80
2022-10-11T13:22:55.117Z,13.80
2022-10-11T13:25:29.498Z,13.80
2022-10-11T13:27:57.263Z,13.80
2022-10-11T13:30:31.937Z,13.79
2022-10-11T13:33:01.854Z,13.78
2022-10-11T13:35:33.368Z,13.78
2022-10-11T13:38:00.315Z,13.78
2022-10-11T13:40:27.257Z,13.76
2022-10-11T13:42:54.124Z,13.75
2022-10-11T13:45:25.277Z,13.74
2022-10-11T13:47:52.653Z,13.72
2022-10-11T13:50:24.179Z,13.71
2022-10-11T13:53:01.869Z,13.69
2022-10-11T13:55:55.871Z,13.67
2022-10-11T13:58:35.468Z,13.66
2022-10-11T14:01:04.696Z,13.64
2022-10-11T14:03:40.778Z,13.62
2022-10-11T14:06:08.086Z,13.60
2022-10-11T14:08:59.505Z,13.59
2022-10-11T14:11:37.581Z,13.57
2022-10-11T14:14:29.488Z,13.54
2022-10-11T14:16:57.430Z,13.51
2022-10-11T14:19:24.195Z,13.47
2022-10-11T14:21:51.834Z,13.42
2022-10-11T14:24:18.734Z,13.39
2022-10-11T14:26:49.771Z,13.34
2022-10-11T14:29:32.467Z,13.29
2022-10-11T14:32:02.978Z,13.20
2022-10-11T14:34:29.772Z,13.10
2022-10-11T14:36:56.504Z,12.98
2022-10-11T14:39:24.340Z,12.86
2022-10-11T14:41:51.630Z,12.71
2022-10-11T14:44:18.706Z,12.55
2022-10-11T14:46:45.905Z,12.39
2022-10-11T14:49:14.387Z,12.22
2022-10-11T14:51:41.182Z,12.05
2022-10-11T14:54:08.011Z,11.88
2022-10-11T14:56:34.795Z,11.72
2022-10-11T14:59:01.710Z,11.56
2022-10-11T15:01:28.634Z,11.41
2022-10-11T15:03:55.517Z,11.25
2022-10-11T15:06:32.781Z,11.10
2022-10-11T15:08:59.565Z,10.94
2022-10-11T15:11:26.183Z,10.78
2022-10-11T15:13:52.880Z,10.60
2022-10-11T15:16:20.114Z,10.47
2022-10-11T15:18:50.901Z,10.33
2022-10-11T15:21:18.826Z,10.18
2022-10-11T15:23:45.551Z,10.02
2022-10-11T15:26:15.739Z,9.89
2022-10-11T15:28:42.497Z,9.75
2022-10-11T15:31:10.044Z,9.61
2022-10-11T15:33:37.309Z,9.48
2022-10-11T15:36:05.635Z,9.34
2022-10-11T15:38:32.477Z,9.18
2022-10-11T15:40:59.699Z,9.09
2022-10-11T15:43:27.588Z,8.99
2022-10-11T15:45:55.019Z,8.89
2022-10-11T15:48:22.913Z,8.78
2022-10-11T15:50:49.923Z,8.67
2022-10-11T15:54:24.778Z,8.56
2022-10-11T15:56:51.560Z,8.46
2022-10-11T15:59:18.392Z,8.38
2022-10-11T16:01:45.128Z,8.30
2022-10-11T16:04:11.904Z,8.22
2022-10-11T16:06:38.615Z,8.13
2022-10-11T16:09:05.321Z,8.05
2022-10-11T16:11:32.011Z,7.94
2022-10-11T16:13:58.739Z,7.88
2022-10-11T16:16:25.491Z,7.81
2022-10-11T16:18:52.224Z,7.74
2022-10-11T16:21:20.938Z,7.65
2022-10-11T16:23:47.668Z,7.58
2022-10-11T16:26:14.910Z,7.51
2022-10-11T16:28:42.156Z,7.45
2022-10-11T16:31:10.191Z,7.40
2022-10-11T16:33:45.682Z,7.34
2022-10-11T16:36:40.739Z,7.30
2022-10-11T16:39:11.474Z,7.24
2022-10-11T16:41:38.248Z,7.20
2022-10-11T16:44:05.059Z,7.16
2022-10-11T16:46:32.463Z,7.11
2022-10-11T16:48:59.311Z,7.05
2022-10-11T16:51:26.139Z,6.99
2022-10-11T16:53:53.184Z,6.93
2022-10-11T16:56:22.665Z,6.88
2022-10-11T16:58:49.439Z,6.82
2022-10-11T17:01:16.247Z,6.78
2022-10-11T17:03:43.045Z,6.72
2022-10-11T17:06:09.985Z,6.67
2022-10-11T17:08:36.708Z,6.62
2022-10-11T17:11:03.511Z,6.58
2022-10-11T17:13:30.290Z,6.54
2022-10-11T17:15:56.876Z,6.51
2022-10-11T17:18:23.668Z,6.47
2022-10-11T17:20:50.390Z,6.44
2022-10-11T17:23:17.072Z,6.41
2022-10-11T17:25:44.165Z,6.39
2022-10-11T17:28:11.107Z,6.34
2022-10-11T17:30:38.146Z,6.34
2022-10-11T17:33:04.855Z,6.32
2022-10-11T17:35:32.157Z,6.30
2022-10-11T17:38:05.001Z,6.28
2022-10-11T17:40:32.796Z,6.26
2022-10-11T17:42:59.529Z,6.25
2022-10-11T17:45:26.199Z,6.23
2022-10-11T17:47:52.897Z,6.20
2022-10-11T17:50:19.579Z,6.16
2022-10-11T17:52:46.337Z,6.14
2022-10-11T17:55:13.461Z,6.10
2022-10-11T17:57:40.212Z,6.08
2022-10-11T18:00:07.573Z,6.04
2022-10-11T18:02:34.296Z,6.03
2022-10-11T18:05:00.995Z,6.00
2022-10-11T18:07:27.627Z,5.98
2022-10-11T18:09:54.451Z,5.96
2022-10-11T18:12:21.122Z,5.94
2022-10-11T18:14:47.888Z,5.88
2022-10-11T18:17:14.575Z,5.90
2022-10-11T18:19:41.350Z,5.88
2022-10-11T18:22:08.315Z,5.88
2022-10-11T18:24:35.047Z,5.87
2022-10-11T18:27:01.800Z,5.86
2022-10-11T18:29:28.489Z,5.82
2022-10-11T18:31:55.224Z,5.83
2022-10-11T18:34:22.192Z,5.82
2022-10-11T18:36:49.096Z,5.81
2022-10-11T18:39:16.007Z,5.81
2022-10-11T18:41:44.682Z,5.79
2022-10-11T18:44:14.054Z,5.79
2022-10-11T18:46:41.394Z,5.78
2022-10-11T18:49:08.862Z,5.77
2022-10-11T18:51:39.599Z,5.76
2022-10-11T18:54:07.222Z,5.75
2022-10-11T18:56:34.665Z,5.75
2022-10-11T18:59:01.512Z,5.74
2022-10-11T19:01:29.218Z,5.74
2022-10-11T19:03:56.939Z,5.73
2022-10-11T19:06:32.364Z,5.72
2022-10-11T19:09:01.275Z,5.71
2022-10-11T19:11:28.281Z,5.69
2022-10-11T19:13:59.454Z,5.68
2022-10-11T19:16:26.968Z,5.67
2022-10-11T19:18:53.879Z,5.66
2022-10-11T19:21:20.718Z,5.61
2022-10-11T19:23:47.993Z,5.64
2022-10-11T19:26:19.785Z,5.63
2022-10-11T19:28:46.915Z,5.62
2022-10-11T19:31:16.867Z,5.62
2022-10-11T19:33:45.291Z,5.62
2022-10-11T19:36:13.832Z,5.63
2022-10-11T19:38:43.719Z,5.63
2022-10-11T19:41:10.739Z,5.63
2022-10-11T19:43:37.591Z,5.64
2022-10-11T19:46:05.007Z,5.64
2022-10-11T19:48:31.810Z,5.63
2022-10-11T19:51:05.406Z,5.62
2022-10-11T19:53:32.397Z,5.62
2022-10-11T19:56:03.116Z,5.63
2022-10-11T19:58:29.971Z,5.63
2022-10-11T20:01:12.020Z,5.61
2022-10-11T20:03:38.877Z,5.64
2022-10-11T20:06:06.382Z,5.66
2022-10-11T20:08:33.240Z,5.67
2022-10-11T20:11:00.831Z,5.67
2022-10-11T20:13:32.424Z,5.69
2022-10-11T20:16:20.610Z,5.69
2022-10-11T20:18:47.291Z,5.72
2022-10-11T20:21:15.685Z,5.74
2022-10-11T20:23:43.318Z,5.76
2022-10-11T20:26:23.577Z,5.78
2022-10-11T20:28:55.796Z,5.80
2022-10-11T20:31:27.843Z,5.79
2022-10-11T20:33:56.091Z,5.83
2022-10-11T20:36:22.966Z,5.83
2022-10-11T20:38:49.781Z,5.83
2022-10-11T20:41:18.866Z,5.85
2022-10-11T20:43:46.416Z,5.84
2022-10-11T20:46:15.120Z,5.85
2022-10-11T20:48:41.895Z,5.86
2022-10-11T20:51:09.632Z,5.86
2022-10-11T20:53:37.273Z,5.88
2022-10-11T20:56:05.117Z,5.90
2022-10-11T20:58:31.825Z,5.92
2022-10-11T21:00:58.564Z,5.95
2022-10-11T21:03:25.213Z,5.98
2022-10-11T21:06:01.054Z,6.01
2022-10-11T21:10:59.342Z,6.11
2022-10-11T21:13:26.047Z,6.17
2022-10-11T21:15:52.937Z,6.22
2022-10-11T21:18:19.896Z,6.27
2022-10-11T21:20:46.832Z,6.32
2022-10-11T21:23:13.837Z,6.38
2022-10-11T21:25:40.724Z,6.43
2022-10-11T21:28:07.382Z,6.48
2022-10-11T21:30:34.139Z,6.54
2022-10-11T21:33:00.791Z,6.59
2022-10-11T21:35:27.970Z,6.65
2022-10-11T21:37:55.282Z,6.72
2022-10-11T21:40:22.027Z,6.79
2022-10-11T21:42:48.714Z,6.86
2022-10-11T21:45:15.458Z,6.94
2022-10-11T21:47:46.318Z,7.01
2022-10-11T21:50:12.986Z,7.09
2022-10-11T21:52:39.730Z,7.17
2022-10-11T21:55:06.458Z,7.25
2022-10-11T21:57:33.191Z,7.32
2022-10-11T21:59:59.816Z,7.37
2022-10-11T22:02:26.525Z,7.44
2022-10-11T22:04:53.214Z,7.50
2022-10-11T22:07:19.896Z,7.56
2022-10-11T22:09:46.560Z,7.61
2022-10-11T22:12:13.305Z,7.67
2022-10-11T22:14:39.953Z,7.71
2022-10-11T22:17:06.687Z,7.76
2022-10-11T22:19:33.281Z,7.80
2022-10-11T22:22:00.001Z,7.83
2022-10-11T22:24:28.235Z,7.86
2022-10-11T22:26:54.978Z,7.90
2022-10-11T22:29:21.575Z,7.94
2022-10-11T22:31:48.281Z,7.97
2022-10-11T22:34:14.999Z,8.00
2022-10-11T22:36:41.933Z,8.03
2022-10-11T22:39:10.145Z,8.07
2022-10-11T22:41:37.495Z,8.08
2022-10-11T22:44:04.454Z,8.11
2022-10-11T22:46:31.156Z,8.12
2022-10-11T22:48:57.844Z,8.15
2022-10-11T22:51:24.586Z,8.17
2022-10-11T22:53:51.205Z,8.18
2022-10-11T22:56:17.911Z,8.20
2022-10-11T22:58:44.609Z,8.21
2022-10-11T23:01:13.069Z,8.23
2022-10-11T23:03:39.840Z,8.25
2022-10-11T23:06:06.816Z,8.26
2022-10-11T23:08:33.562Z,8.29
2022-10-11T23:11:06.635Z,8.30
2022-10-11T23:13:34.742Z,8.32
2022-10-11T23:18:37.594Z,8.38
2022-10-11T23:21:04.762Z,8.41
2022-10-11T23:23:31.454Z,8.46
2022-10-11T23:26:05.109Z,8.50
2022-10-11T23:28:32.035Z,8.55
2022-10-11T23:30:58.772Z,8.60
2022-10-11T23:33:25.453Z,8.64
2022-10-11T23:35:52.115Z,8.69
2022-10-11T23:38:18.788Z,8.72
2022-10-11T23:40:45.484Z,8.74
2022-10-11T23:43:12.168Z,8.77
2022-10-11T23:45:38.893Z,8.78
2022-10-11T23:48:05.723Z,8.79
2022-10-11T23:50:32.343Z,8.79
2022-10-11T23:52:59.023Z,8.80
2022-10-11T23:55:25.735Z,8.79
2022-10-11T23:57:52.382Z,8.79
